sensor_id;sensor_type;location;lat;lon;timestamp;P1;durP1;ratioP1;P2;durP2;ratioP2
11092;SDS011;5600;50.864;6.102;2023-07-09T00:02:39;79.32;;;10.65;;
11092;SDS011;5600;50.864;6.102;2023-07-09T00:05:41;85.28;;;10.13;;
11092;SDS011;5600;50.864;6.102;2023-07-09T00:08:43;74.28;;;10.20;;
11092;SDS011;5600;50.864;6.102;2023-07-09T00:11:46;84.03;;;10.07;;
11092;SDS011;5600;50.864;6.102;2023-07-09T00:14:48;92.80;;;10.32;;
11092;SDS011;5600;50.864;6.102;2023-07-09T00:17:49;86.55;;;10.60;;
11092;SDS011;5600;50.864;6.102;2023-07-09T00:20:50;71.57;;;9.40;;
11092;SDS011;5600;50.864;6.102;2023-07-09T00:23:51;60.03;;;10.25;;
11092;SDS011;5600;50.864;6.102;2023-07-09T00:26:52;82.28;;;10.40;;
11092;SDS011;5600;50.864;6.102;2023-07-09T00:29:53;85.97;;;10.75;;
11092;SDS011;5600;50.864;6.102;2023-07-09T00:32:53;66.93;;;9.65;;
11092;SDS011;5600;50.864;6.102;2023-07-09T00:35:54;82.03;;;10.02;;
11092;SDS011;5600;50.864;6.102;2023-07-09T00:38:55;86.03;;;10.30;;
11092;SDS011;5600;50.864;6.102;2023-07-09T00:41:59;98.22;;;11.10;;
11092;SDS011;5600;50.864;6.102;2023-07-09T00:45:00;94.53;;;10.45;;
11092;SDS011;5600;50.864;6.102;2023-07-09T00:48:02;83.70;;;9.93;;
11092;SDS011;5600;50.864;6.102;2023-07-09T00:51:13;96.53;;;9.95;;
11092;SDS011;5600;50.864;6.102;2023-07-09T00:54:22;75.85;;;10.20;;
11092;SDS011;5600;50.864;6.102;2023-07-09T00:57:30;87.80;;;10.00;;
11092;SDS011;5600;50.864;6.102;2023-07-09T01:00:33;92.43;;;10.80;;
11092;SDS011;5600;50.864;6.102;2023-07-09T01:03:44;81.30;;;9.93;;
11092;SDS011;5600;50.864;6.102;2023-07-09T01:06:49;102.65;;;10.77;;
11092;SDS011;5600;50.864;6.102;2023-07-09T01:09:51;95.45;;;10.45;;
11092;SDS011;5600;50.864;6.102;2023-07-09T01:12:53;98.80;;;11.30;;
11092;SDS011;5600;50.864;6.102;2023-07-09T01:15:54;92.60;;;10.77;;
11092;SDS011;5600;50.864;6.102;2023-07-09T01:18:57;89.60;;;10.70;;
11092;SDS011;5600;50.864;6.102;2023-07-09T01:21:59;110.70;;;11.13;;
11092;SDS011;5600;50.864;6.102;2023-07-09T01:25:02;96.57;;;10.93;;
11092;SDS011;5600;50.864;6.102;2023-07-09T01:28:07;99.18;;;11.02;;
11092;SDS011;5600;50.864;6.102;2023-07-09T01:31:08;106.03;;;10.95;;
11092;SDS011;5600;50.864;6.102;2023-07-09T01:34:10;97.30;;;10.88;;
11092;SDS011;5600;50.864;6.102;2023-07-09T01:37:12;97.80;;;11.15;;
11092;SDS011;5600;50.864;6.102;2023-07-09T01:40:14;85.63;;;10.05;;
11092;SDS011;5600;50.864;6.102;2023-07-09T01:43:16;79.55;;;10.30;;
11092;SDS011;5600;50.864;6.102;2023-07-09T01:46:18;90.85;;;10.68;;
11092;SDS011;5600;50.864;6.102;2023-07-09T01:49:19;62.72;;;9.95;;
11092;SDS011;5600;50.864;6.102;2023-07-09T01:52:21;92.85;;;10.88;;
11092;SDS011;5600;50.864;6.102;2023-07-09T01:55:23;63.72;;;9.40;;
11092;SDS011;5600;50.864;6.102;2023-07-09T01:58:24;80.78;;;9.93;;
11092;SDS011;5600;50.864;6.102;2023-07-09T02:01:26;99.28;;;10.77;;
11092;SDS011;5600;50.864;6.102;2023-07-09T02:04:30;82.50;;;9.88;;
11092;SDS011;5600;50.864;6.102;2023-07-09T02:07:32;74.07;;;10.07;;
11092;SDS011;5600;50.864;6.102;2023-07-09T02:10:32;57.50;;;9.18;;
11092;SDS011;5600;50.864;6.102;2023-07-09T02:13:33;79.85;;;10.18;;
11092;SDS011;5600;50.864;6.102;2023-07-09T02:16:34;87.35;;;11.02;;
11092;SDS011;5600;50.864;6.102;2023-07-09T02:19:36;97.03;;;10.48;;
11092;SDS011;5600;50.864;6.102;2023-07-09T02:22:37;80.30;;;10.32;;
11092;SDS011;5600;50.864;6.102;2023-07-09T02:25:38;79.10;;;9.98;;
11092;SDS011;5600;50.864;6.102;2023-07-09T02:28:40;83.68;;;10.80;;
11092;SDS011;5600;50.864;6.102;2023-07-09T02:31:41;78.30;;;10.75;;
11092;SDS011;5600;50.864;6.102;2023-07-09T02:34:43;81.28;;;10.73;;
11092;SDS011;5600;50.864;6.102;2023-07-09T02:37:48;99.43;;;11.20;;
11092;SDS011;5600;50.864;6.102;2023-07-09T02:40:50;85.57;;;10.82;;
11092;SDS011;5600;50.864;6.102;2023-07-09T02:43:50;96.60;;;11.20;;
11092;SDS011;5600;50.864;6.102;2023-07-09T02:46:53;76.18;;;9.85;;
11092;SDS011;5600;50.864;6.102;2023-07-09T02:49:54;93.25;;;10.93;;
11092;SDS011;5600;50.864;6.102;2023-07-09T02:52:55;121.70;;;12.32;;
11092;SDS011;5600;50.864;6.102;2023-07-09T02:55:56;92.15;;;10.82;;
11092;SDS011;5600;50.864;6.102;2023-07-09T02:58:57;114.10;;;13.13;;
11092;SDS011;5600;50.864;6.102;2023-07-09T03:01:59;76.45;;;11.98;;
11092;SDS011;5600;50.864;6.102;2023-07-09T03:05:00;95.18;;;12.65;;
11092;SDS011;5600;50.864;6.102;2023-07-09T03:08:01;92.72;;;12.43;;
11092;SDS011;5600;50.864;6.102;2023-07-09T03:11:09;115.93;;;12.60;;
11092;SDS011;5600;50.864;6.102;2023-07-09T03:14:11;109.50;;;12.65;;
11092;SDS011;5600;50.864;6.102;2023-07-09T03:17:12;75.95;;;14.38;;
11092;SDS011;5600;50.864;6.102;2023-07-09T03:20:13;110.00;;;14.38;;
11092;SDS011;5600;50.864;6.102;2023-07-09T03:23:14;84.43;;;13.25;;
11092;SDS011;5600;50.864;6.102;2023-07-09T03:26:15;105.10;;;13.77;;
11092;SDS011;5600;50.864;6.102;2023-07-09T03:29:16;80.53;;;13.05;;
11092;SDS011;5600;50.864;6.102;2023-07-09T03:32:17;88.07;;;13.70;;
11092;SDS011;5600;50.864;6.102;2023-07-09T03:35:18;88.65;;;13.90;;
11092;SDS011;5600;50.864;6.102;2023-07-09T03:38:19;78.32;;;14.13;;
11092;SDS011;5600;50.864;6.102;2023-07-09T03:41:20;99.88;;;14.88;;
11092;SDS011;5600;50.864;6.102;2023-07-09T03:44:21;97.90;;;15.63;;
11092;SDS011;5600;50.864;6.102;2023-07-09T03:47:22;76.15;;;13.95;;
11092;SDS011;5600;50.864;6.102;2023-07-09T03:50:23;86.05;;;13.77;;
11092;SDS011;5600;50.864;6.102;2023-07-09T03:53:24;93.18;;;13.85;;
11092;SDS011;5600;50.864;6.102;2023-07-09T03:56:25;87.30;;;14.30;;
11092;SDS011;5600;50.864;6.102;2023-07-09T03:59:27;93.13;;;15.52;;
11092;SDS011;5600;50.864;6.102;2023-07-09T04:02:28;106.55;;;16.63;;
11092;SDS011;5600;50.864;6.102;2023-07-09T04:05:28;86.40;;;14.63;;
11092;SDS011;5600;50.864;6.102;2023-07-09T04:08:29;88.18;;;15.02;;
11092;SDS011;5600;50.864;6.102;2023-07-09T04:11:30;90.72;;;14.65;;
11092;SDS011;5600;50.864;6.102;2023-07-09T04:14:31;96.50;;;15.13;;
11092;SDS011;5600;50.864;6.102;2023-07-09T04:17:33;109.18;;;16.02;;
11092;SDS011;5600;50.864;6.102;2023-07-09T04:20:33;115.82;;;15.07;;
11092;SDS011;5600;50.864;6.102;2023-07-09T04:23:35;104.47;;;14.07;;
11092;SDS011;5600;50.864;6.102;2023-07-09T04:26:35;104.20;;;13.45;;
11092;SDS011;5600;50.864;6.102;2023-07-09T04:29:39;91.82;;;12.95;;
11092;SDS011;5600;50.864;6.102;2023-07-09T04:32:40;97.13;;;14.00;;
11092;SDS011;5600;50.864;6.102;2023-07-09T04:35:45;97.22;;;13.60;;
11092;SDS011;5600;50.864;6.102;2023-07-09T04:38:46;97.35;;;13.73;;
11092;SDS011;5600;50.864;6.102;2023-07-09T04:41:47;103.95;;;14.23;;
11092;SDS011;5600;50.864;6.102;2023-07-09T04:44:48;82.03;;;12.65;;
11092;SDS011;5600;50.864;6.102;2023-07-09T04:47:49;88.32;;;12.60;;
11092;SDS011;5600;50.864;6.102;2023-07-09T04:50:50;83.72;;;12.63;;
11092;SDS011;5600;50.864;6.102;2023-07-09T04:53:51;107.82;;;13.98;;
11092;SDS011;5600;50.864;6.102;2023-07-09T04:56:52;88.70;;;13.10;;
11092;SDS011;5600;50.864;6.102;2023-07-09T04:59:53;92.88;;;13.00;;
11092;SDS011;5600;50.864;6.102;2023-07-09T05:02:54;79.15;;;12.25;;
11092;SDS011;5600;50.864;6.102;2023-07-09T05:05:55;89.35;;;12.38;;
11092;SDS011;5600;50.864;6.102;2023-07-09T05:08:56;93.65;;;12.85;;
11092;SDS011;5600;50.864;6.102;2023-07-09T05:11:58;96.80;;;13.27;;
11092;SDS011;5600;50.864;6.102;2023-07-09T05:14:59;85.07;;;11.63;;
11092;SDS011;5600;50.864;6.102;2023-07-09T05:17:59;82.57;;;12.10;;
11092;SDS011;5600;50.864;6.102;2023-07-09T05:21:00;94.93;;;11.75;;
11092;SDS011;5600;50.864;6.102;2023-07-09T05:24:01;92.68;;;11.57;;
11092;SDS011;5600;50.864;6.102;2023-07-09T05:27:02;90.28;;;10.77;;
11092;SDS011;5600;50.864;6.102;2023-07-09T05:30:04;82.78;;;10.85;;
11092;SDS011;5600;50.864;6.102;2023-07-09T05:33:05;75.28;;;10.07;;
11092;SDS011;5600;50.864;6.102;2023-07-09T05:36:05;75.20;;;10.10;;
11092;SDS011;5600;50.864;6.102;2023-07-09T05:39:08;75.13;;;10.38;;
11092;SDS011;5600;50.864;6.102;2023-07-09T05:42:09;77.82;;;9.90;;
11092;SDS011;5600;50.864;6.102;2023-07-09T05:45:10;81.63;;;10.13;;
11092;SDS011;5600;50.864;6.102;2023-07-09T05:48:11;100.57;;;10.95;;
11092;SDS011;5600;50.864;6.102;2023-07-09T05:51:12;66.53;;;9.60;;
11092;SDS011;5600;50.864;6.102;2023-07-09T05:54:13;56.30;;;9.35;;
11092;SDS011;5600;50.864;6.102;2023-07-09T05:57:13;75.70;;;9.52;;
11092;SDS011;5600;50.864;6.102;2023-07-09T06:00:14;88.32;;;9.68;;
11092;SDS011;5600;50.864;6.102;2023-07-09T06:03:16;68.15;;;8.85;;
11092;SDS011;5600;50.864;6.102;2023-07-09T06:06:17;73.10;;;8.65;;
11092;SDS011;5600;50.864;6.102;2023-07-09T06:09:18;79.22;;;9.70;;
11092;SDS011;5600;50.864;6.102;2023-07-09T06:12:19;67.82;;;8.80;;
11092;SDS011;5600;50.864;6.102;2023-07-09T06:15:20;80.57;;;9.13;;
11092;SDS011;5600;50.864;6.102;2023-07-09T06:18:21;66.07;;;8.13;;
11092;SDS011;5600;50.864;6.102;2023-07-09T06:21:23;70.07;;;8.77;;
11092;SDS011;5600;50.864;6.102;2023-07-09T06:24:23;87.07;;;9.20;;
11092;SDS011;5600;50.864;6.102;2023-07-09T06:27:24;61.45;;;7.90;;
11092;SDS011;5600;50.864;6.102;2023-07-09T06:30:24;60.45;;;7.45;;
11092;SDS011;5600;50.864;6.102;2023-07-09T06:33:25;65.18;;;8.13;;
11092;SDS011;5600;50.864;6.102;2023-07-09T06:36:26;71.75;;;8.52;;
11092;SDS011;5600;50.864;6.102;2023-07-09T06:39:27;72.75;;;8.23;;
11092;SDS011;5600;50.864;6.102;2023-07-09T06:42:27;109.55;;;9.65;;
11092;SDS011;5600;50.864;6.102;2023-07-09T06:49:00;79.18;;;7.90;;
11092;SDS011;5600;50.864;6.102;2023-07-09T06:52:01;62.80;;;7.47;;
11092;SDS011;5600;50.864;6.102;2023-07-09T06:55:01;88.75;;;8.10;;
11092;SDS011;5600;50.864;6.102;2023-07-09T06:58:02;91.35;;;7.97;;
11092;SDS011;5600;50.864;6.102;2023-07-09T07:01:04;75.70;;;7.57;;
11092;SDS011;5600;50.864;6.102;2023-07-09T07:04:04;83.40;;;7.25;;
11092;SDS011;5600;50.864;6.102;2023-07-09T07:07:05;127.25;;;10.40;;
11092;SDS011;5600;50.864;6.102;2023-07-09T07:10:06;94.30;;;8.65;;
11092;SDS011;5600;50.864;6.102;2023-07-09T07:13:07;69.97;;;7.88;;
11092;SDS011;5600;50.864;6.102;2023-07-09T07:16:08;65.40;;;7.22;;
11092;SDS011;5600;50.864;6.102;2023-07-09T07:19:11;78.03;;;8.18;;
11092;SDS011;5600;50.864;6.102;2023-07-09T07:22:11;83.72;;;7.72;;
11092;SDS011;5600;50.864;6.102;2023-07-09T07:25:12;77.72;;;7.60;;
11092;SDS011;5600;50.864;6.102;2023-07-09T07:28:13;53.53;;;6.30;;
11092;SDS011;5600;50.864;6.102;2023-07-09T07:31:14;66.80;;;7.00;;
11092;SDS011;5600;50.864;6.102;2023-07-09T07:34:15;72.97;;;7.25;;
11092;SDS011;5600;50.864;6.102;2023-07-09T07:37:17;68.63;;;6.95;;
11092;SDS011;5600;50.864;6.102;2023-07-09T07:40:21;77.95;;;6.80;;
11092;SDS011;5600;50.864;6.102;2023-07-09T07:43:22;58.55;;;6.70;;
11092;SDS011;5600;50.864;6.102;2023-07-09T07:46:23;57.45;;;6.18;;
11092;SDS011;5600;50.864;6.102;2023-07-09T07:49:23;71.55;;;6.75;;
11092;SDS011;5600;50.864;6.102;2023-07-09T07:52:24;75.85;;;7.30;;
11092;SDS011;5600;50.864;6.102;2023-07-09T07:55:25;79.88;;;7.20;;
11092;SDS011;5600;50.864;6.102;2023-07-09T07:58:26;58.03;;;6.25;;
11092;SDS011;5600;50.864;6.102;2023-07-09T08:01:27;52.85;;;5.57;;
11092;SDS011;5600;50.864;6.102;2023-07-09T08:04:28;70.63;;;7.05;;
11092;SDS011;5600;50.864;6.102;2023-07-09T08:07:28;68.43;;;6.65;;
11092;SDS011;5600;50.864;6.102;2023-07-09T08:10:29;60.20;;;6.18;;
11092;SDS011;5600;50.864;6.102;2023-07-09T08:13:33;101.35;;;8.38;;
11092;SDS011;5600;50.864;6.102;2023-07-09T08:16:35;64.88;;;6.47;;
11092;SDS011;5600;50.864;6.102;2023-07-09T08:19:50;55.00;;;5.97;;
11092;SDS011;5600;50.864;6.102;2023-07-09T08:22:54;74.50;;;6.90;;
11092;SDS011;5600;50.864;6.102;2023-07-09T08:25:55;95.40;;;7.70;;
11092;SDS011;5600;50.864;6.102;2023-07-09T08:28:57;84.55;;;7.53;;
11092;SDS011;5600;50.864;6.102;2023-07-09T08:31:58;98.53;;;8.23;;
11092;SDS011;5600;50.864;6.102;2023-07-09T08:34:59;128.18;;;9.68;;
11092;SDS011;5600;50.864;6.102;2023-07-09T08:37:59;109.45;;;8.55;;
11092;SDS011;5600;50.864;6.102;2023-07-09T08:41:02;138.88;;;10.05;;
11092;SDS011;5600;50.864;6.102;2023-07-09T08:47:55;99.03;;;8.15;;
11092;SDS011;5600;50.864;6.102;2023-07-09T08:50:59;84.30;;;7.50;;
11092;SDS011;5600;50.864;6.102;2023-07-09T08:54:04;78.50;;;7.18;;
11092;SDS011;5600;50.864;6.102;2023-07-09T08:57:16;61.20;;;6.30;;
11092;SDS011;5600;50.864;6.102;2023-07-09T09:00:28;87.70;;;7.85;;
11092;SDS011;5600;50.864;6.102;2023-07-09T09:03:44;75.40;;;7.18;;
11092;SDS011;5600;50.864;6.102;2023-07-09T09:06:52;70.50;;;6.82;;
11092;SDS011;5600;50.864;6.102;2023-07-09T09:10:08;74.03;;;6.57;;
11092;SDS011;5600;50.864;6.102;2023-07-09T09:13:19;73.75;;;6.75;;
11092;SDS011;5600;50.864;6.102;2023-07-09T09:16:28;67.53;;;6.28;;
11092;SDS011;5600;50.864;6.102;2023-07-09T09:19:34;84.78;;;7.00;;
11092;SDS011;5600;50.864;6.102;2023-07-09T09:22:43;67.90;;;6.28;;
11092;SDS011;5600;50.864;6.102;2023-07-09T09:25:55;57.92;;;5.72;;
11092;SDS011;5600;50.864;6.102;2023-07-09T09:29:00;74.40;;;6.65;;
11092;SDS011;5600;50.864;6.102;2023-07-09T09:32:02;83.55;;;7.28;;
11092;SDS011;5600;50.864;6.102;2023-07-09T09:35:32;68.97;;;6.53;;
11092;SDS011;5600;50.864;6.102;2023-07-09T09:38:37;81.65;;;7.20;;
11092;SDS011;5600;50.864;6.102;2023-07-09T09:41:37;72.03;;;6.65;;
11092;SDS011;5600;50.864;6.102;2023-07-09T09:44:43;95.20;;;7.60;;
11092;SDS011;5600;50.864;6.102;2023-07-09T09:47:45;70.97;;;6.55;;
11092;SDS011;5600;50.864;6.102;2023-07-09T09:50:47;76.75;;;6.78;;
11092;SDS011;5600;50.864;6.102;2023-07-09T09:53:51;92.07;;;7.30;;
11092;SDS011;5600;50.864;6.102;2023-07-09T09:56:57;74.18;;;6.47;;
11092;SDS011;5600;50.864;6.102;2023-07-09T09:59:57;74.00;;;6.72;;
11092;SDS011;5600;50.864;6.102;2023-07-09T10:02:59;65.32;;;6.20;;
11092;SDS011;5600;50.864;6.102;2023-07-09T10:06:05;73.68;;;6.57;;
11092;SDS011;5600;50.864;6.102;2023-07-09T10:12:42;98.13;;;7.75;;
11092;SDS011;5600;50.864;6.102;2023-07-09T10:19:32;72.70;;;6.45;;
11092;SDS011;5600;50.864;6.102;2023-07-09T10:22:40;93.45;;;7.30;;
11092;SDS011;5600;50.864;6.102;2023-07-09T10:26:01;75.68;;;6.60;;
11092;SDS011;5600;50.864;6.102;2023-07-09T10:35:51;51.72;;;5.40;;
11092;SDS011;5600;50.864;6.102;2023-07-09T10:39:00;71.43;;;6.28;;
11092;SDS011;5600;50.864;6.102;2023-07-09T10:42:02;75.53;;;6.53;;
11092;SDS011;5600;50.864;6.102;2023-07-09T10:45:10;70.22;;;10.40;;
11092;SDS011;5600;50.864;6.102;2023-07-09T10:48:34;76.68;;;6.50;;
11092;SDS011;5600;50.864;6.102;2023-07-09T10:51:39;68.90;;;6.40;;
11092;SDS011;5600;50.864;6.102;2023-07-09T10:54:55;76.22;;;6.60;;
11092;SDS011;5600;50.864;6.102;2023-07-09T10:58:14;75.85;;;6.65;;
11092;SDS011;5600;50.864;6.102;2023-07-09T11:01:27;69.05;;;6.13;;
11092;SDS011;5600;50.864;6.102;2023-07-09T11:04:33;99.68;;;7.65;;
11092;SDS011;5600;50.864;6.102;2023-07-09T11:07:42;70.60;;;6.82;;
11092;SDS011;5600;50.864;6.102;2023-07-09T11:10:52;51.17;;;5.18;;
11092;SDS011;5600;50.864;6.102;2023-07-09T11:14:04;69.78;;;6.10;;
11092;SDS011;5600;50.864;6.102;2023-07-09T11:17:19;62.15;;;5.95;;
11092;SDS011;5600;50.864;6.102;2023-07-09T11:20:25;70.45;;;6.15;;
11092;SDS011;5600;50.864;6.102;2023-07-09T11:23:43;60.10;;;5.80;;
11092;SDS011;5600;50.864;6.102;2023-07-09T11:26:49;73.00;;;6.15;;
11092;SDS011;5600;50.864;6.102;2023-07-09T11:33:26;62.40;;;5.80;;
11092;SDS011;5600;50.864;6.102;2023-07-09T11:36:28;82.38;;;6.72;;
11092;SDS011;5600;50.864;6.102;2023-07-09T11:39:42;75.70;;;6.60;;
11092;SDS011;5600;50.864;6.102;2023-07-09T11:42:47;74.72;;;6.93;;
11092;SDS011;5600;50.864;6.102;2023-07-09T11:45:51;80.00;;;6.68;;
11092;SDS011;5600;50.864;6.102;2023-07-09T11:48:52;59.85;;;5.65;;
11092;SDS011;5600;50.864;6.102;2023-07-09T11:52:03;75.30;;;6.53;;
11092;SDS011;5600;50.864;6.102;2023-07-09T11:55:19;75.47;;;6.28;;
11092;SDS011;5600;50.864;6.102;2023-07-09T11:58:27;64.13;;;6.15;;
11092;SDS011;5600;50.864;6.102;2023-07-09T12:01:30;89.95;;;7.32;;
11092;SDS011;5600;50.864;6.102;2023-07-09T12:04:36;91.10;;;7.57;;
11092;SDS011;5600;50.864;6.102;2023-07-09T12:07:37;76.68;;;6.90;;
11092;SDS011;5600;50.864;6.102;2023-07-09T12:10:37;102.25;;;8.02;;
11092;SDS011;5600;50.864;6.102;2023-07-09T12:13:39;84.95;;;7.18;;
11092;SDS011;5600;50.864;6.102;2023-07-09T12:16:41;84.93;;;7.40;;
11092;SDS011;5600;50.864;6.102;2023-07-09T12:19:45;65.32;;;6.65;;
11092;SDS011;5600;50.864;6.102;2023-07-09T12:22:46;73.60;;;6.97;;
11092;SDS011;5600;50.864;6.102;2023-07-09T12:25:48;76.05;;;6.63;;
11092;SDS011;5600;50.864;6.102;2023-07-09T12:28:54;88.28;;;7.50;;
11092;SDS011;5600;50.864;6.102;2023-07-09T12:31:57;92.45;;;8.10;;
11092;SDS011;5600;50.864;6.102;2023-07-09T12:34:58;109.07;;;8.93;;
11092;SDS011;5600;50.864;6.102;2023-07-09T12:37:59;96.28;;;9.07;;
11092;SDS011;5600;50.864;6.102;2023-07-09T12:41:01;101.68;;;9.02;;
11092;SDS011;5600;50.864;6.102;2023-07-09T12:44:04;104.40;;;8.57;;
11092;SDS011;5600;50.864;6.102;2023-07-09T12:47:05;71.07;;;7.07;;
11092;SDS011;5600;50.864;6.102;2023-07-09T12:53:23;54.60;;;6.57;;
11092;SDS011;5600;50.864;6.102;2023-07-09T12:56:26;83.00;;;7.15;;
11092;SDS011;5600;50.864;6.102;2023-07-09T12:59:28;81.32;;;7.15;;
11092;SDS011;5600;50.864;6.102;2023-07-09T13:02:38;85.60;;;7.35;;
11092;SDS011;5600;50.864;6.102;2023-07-09T13:05:39;90.88;;;7.35;;
11092;SDS011;5600;50.864;6.102;2023-07-09T13:08:54;135.85;;;9.20;;
11092;SDS011;5600;50.864;6.102;2023-07-09T13:11:59;132.32;;;9.70;;
11092;SDS011;5600;50.864;6.102;2023-07-09T13:15:04;137.95;;;9.15;;
11092;SDS011;5600;50.864;6.102;2023-07-09T13:18:05;121.88;;;8.95;;
11092;SDS011;5600;50.864;6.102;2023-07-09T13:21:18;153.98;;;10.50;;
11092;SDS011;5600;50.864;6.102;2023-07-09T13:24:22;90.80;;;7.25;;
11092;SDS011;5600;50.864;6.102;2023-07-09T13:27:24;113.80;;;8.50;;
11092;SDS011;5600;50.864;6.102;2023-07-09T13:30:25;81.47;;;7.63;;
11092;SDS011;5600;50.864;6.102;2023-07-09T13:33:26;134.90;;;10.13;;
11092;SDS011;5600;50.864;6.102;2023-07-09T13:41:22;155.23;;;10.55;;
11092;SDS011;5600;50.864;6.102;2023-07-09T13:44:24;127.97;;;9.30;;
11092;SDS011;5600;50.864;6.102;2023-07-09T13:47:28;172.40;;;11.20;;
11092;SDS011;5600;50.864;6.102;2023-07-09T13:53:53;135.98;;;10.25;;
11092;SDS011;5600;50.864;6.102;2023-07-09T14:01:43;147.40;;;11.48;;
11092;SDS011;5600;50.864;6.102;2023-07-09T14:04:44;146.43;;;13.82;;
11092;SDS011;5600;50.864;6.102;2023-07-09T14:07:46;116.40;;;13.13;;
11092;SDS011;5600;50.864;6.102;2023-07-09T14:10:47;134.52;;;16.05;;
11092;SDS011;5600;50.864;6.102;2023-07-09T14:13:49;142.20;;;19.63;;
11092;SDS011;5600;50.864;6.102;2023-07-09T14:16:52;112.22;;;20.65;;
11092;SDS011;5600;50.864;6.102;2023-07-09T14:19:53;149.98;;;24.15;;
11092;SDS011;5600;50.864;6.102;2023-07-09T14:22:54;146.77;;;23.27;;
11092;SDS011;5600;50.864;6.102;2023-07-09T14:25:55;116.03;;;19.75;;
11092;SDS011;5600;50.864;6.102;2023-07-09T14:28:57;118.22;;;16.95;;
11092;SDS011;5600;50.864;6.102;2023-07-09T14:31:59;115.80;;;16.23;;
11092;SDS011;5600;50.864;6.102;2023-07-09T14:35:10;115.63;;;15.85;;
11092;SDS011;5600;50.864;6.102;2023-07-09T14:38:15;176.85;;;18.10;;
11092;SDS011;5600;50.864;6.102;2023-07-09T14:41:24;105.05;;;16.08;;
11092;SDS011;5600;50.864;6.102;2023-07-09T14:44:27;128.80;;;17.40;;
11092;SDS011;5600;50.864;6.102;2023-07-09T14:47:29;156.15;;;17.33;;
11092;SDS011;5600;50.864;6.102;2023-07-09T14:50:30;166.80;;;19.02;;
11092;SDS011;5600;50.864;6.102;2023-07-09T14:53:31;145.93;;;17.92;;
11092;SDS011;5600;50.864;6.102;2023-07-09T14:56:33;202.15;;;20.58;;
11092;SDS011;5600;50.864;6.102;2023-07-09T14:59:34;159.98;;;16.52;;
11092;SDS011;5600;50.864;6.102;2023-07-09T15:02:36;151.10;;;19.25;;
11092;SDS011;5600;50.864;6.102;2023-07-09T15:05:39;147.27;;;19.27;;
11092;SDS011;5600;50.864;6.102;2023-07-09T15:08:40;129.73;;;16.40;;
11092;SDS011;5600;50.864;6.102;2023-07-09T15:11:41;163.98;;;18.60;;
11092;SDS011;5600;50.864;6.102;2023-07-09T15:14:44;133.98;;;16.23;;
11092;SDS011;5600;50.864;6.102;2023-07-09T15:17:45;128.77;;;18.05;;
11092;SDS011;5600;50.864;6.102;2023-07-09T15:20:48;130.73;;;15.88;;
11092;SDS011;5600;50.864;6.102;2023-07-09T15:23:51;139.73;;;21.38;;
11092;SDS011;5600;50.864;6.102;2023-07-09T15:26:53;116.95;;;16.63;;
11092;SDS011;5600;50.864;6.102;2023-07-09T15:29:55;124.47;;;22.70;;
11092;SDS011;5600;50.864;6.102;2023-07-09T15:32:56;125.78;;;19.92;;
11092;SDS011;5600;50.864;6.102;2023-07-09T15:35:59;122.65;;;21.40;;
11092;SDS011;5600;50.864;6.102;2023-07-09T15:39:00;97.47;;;23.27;;
11092;SDS011;5600;50.864;6.102;2023-07-09T15:42:01;119.90;;;21.52;;
11092;SDS011;5600;50.864;6.102;2023-07-09T15:45:02;142.40;;;21.92;;
11092;SDS011;5600;50.864;6.102;2023-07-09T15:48:04;150.02;;;21.30;;
11092;SDS011;5600;50.864;6.102;2023-07-09T15:51:05;110.30;;;18.92;;
11092;SDS011;5600;50.864;6.102;2023-07-09T15:54:16;101.47;;;18.77;;
11092;SDS011;5600;50.864;6.102;2023-07-09T15:57:21;111.93;;;15.85;;
11092;SDS011;5600;50.864;6.102;2023-07-09T16:00:23;123.00;;;16.42;;
11092;SDS011;5600;50.864;6.102;2023-07-09T16:03:26;113.45;;;16.05;;
11092;SDS011;5600;50.864;6.102;2023-07-09T16:06:27;116.45;;;15.43;;
11092;SDS011;5600;50.864;6.102;2023-07-09T16:09:28;111.10;;;15.20;;
11092;SDS011;5600;50.864;6.102;2023-07-09T16:12:29;139.40;;;18.10;;
11092;SDS011;5600;50.864;6.102;2023-07-09T16:15:30;130.23;;;15.48;;
11092;SDS011;5600;50.864;6.102;2023-07-09T16:18:32;141.73;;;16.23;;
11092;SDS011;5600;50.864;6.102;2023-07-09T16:21:32;130.73;;;15.15;;
11092;SDS011;5600;50.864;6.102;2023-07-09T16:24:34;150.63;;;16.33;;
11092;SDS011;5600;50.864;6.102;2023-07-09T16:27:36;108.22;;;14.98;;
11092;SDS011;5600;50.864;6.102;2023-07-09T16:30:38;129.48;;;16.08;;
11092;SDS011;5600;50.864;6.102;2023-07-09T16:33:39;121.25;;;15.23;;
11092;SDS011;5600;50.864;6.102;2023-07-09T16:36:41;141.25;;;16.52;;
11092;SDS011;5600;50.864;6.102;2023-07-09T16:39:41;108.68;;;14.02;;
11092;SDS011;5600;50.864;6.102;2023-07-09T16:42:44;111.15;;;14.15;;
11092;SDS011;5600;50.864;6.102;2023-07-09T16:45:45;130.57;;;14.93;;
11092;SDS011;5600;50.864;6.102;2023-07-09T16:48:47;86.10;;;14.38;;
11092;SDS011;5600;50.864;6.102;2023-07-09T16:51:47;186.35;;;17.83;;
11092;SDS011;5600;50.864;6.102;2023-07-09T16:54:49;121.53;;;14.48;;
11092;SDS011;5600;50.864;6.102;2023-07-09T16:57:51;94.10;;;13.52;;
11092;SDS011;5600;50.864;6.102;2023-07-09T17:00:53;127.15;;;15.57;;
11092;SDS011;5600;50.864;6.102;2023-07-09T17:03:54;92.18;;;13.90;;
11092;SDS011;5600;50.864;6.102;2023-07-09T17:06:55;83.82;;;13.55;;
11092;SDS011;5600;50.864;6.102;2023-07-09T17:09:57;86.05;;;14.52;;
11092;SDS011;5600;50.864;6.102;2023-07-09T17:12:58;109.72;;;14.05;;
11092;SDS011;5600;50.864;6.102;2023-07-09T17:16:01;101.07;;;13.77;;
11092;SDS011;5600;50.864;6.102;2023-07-09T17:19:02;103.25;;;13.45;;
11092;SDS011;5600;50.864;6.102;2023-07-09T17:22:09;93.07;;;14.40;;
11092;SDS011;5600;50.864;6.102;2023-07-09T17:28:23;117.68;;;14.73;;
11092;SDS011;5600;50.864;6.102;2023-07-09T17:31:26;150.93;;;15.80;;
11092;SDS011;5600;50.864;6.102;2023-07-09T17:34:27;116.00;;;14.07;;
11092;SDS011;5600;50.864;6.102;2023-07-09T17:37:28;144.02;;;16.73;;
11092;SDS011;5600;50.864;6.102;2023-07-09T17:40:31;121.28;;;15.60;;
11092;SDS011;5600;50.864;6.102;2023-07-09T17:43:34;125.97;;;15.07;;
11092;SDS011;5600;50.864;6.102;2023-07-09T17:46:38;105.95;;;14.77;;
11092;SDS011;5600;50.864;6.102;2023-07-09T17:49:39;89.47;;;13.23;;
11092;SDS011;5600;50.864;6.102;2023-07-09T17:52:39;112.18;;;16.15;;
11092;SDS011;5600;50.864;6.102;2023-07-09T17:55:41;99.50;;;14.68;;
11092;SDS011;5600;50.864;6.102;2023-07-09T17:58:41;95.18;;;15.80;;
11092;SDS011;5600;50.864;6.102;2023-07-09T18:01:44;86.90;;;13.68;;
11092;SDS011;5600;50.864;6.102;2023-07-09T18:04:47;101.35;;;17.58;;
11092;SDS011;5600;50.864;6.102;2023-07-09T18:07:48;89.93;;;14.85;;
11092;SDS011;5600;50.864;6.102;2023-07-09T18:10:49;106.60;;;15.13;;
11092;SDS011;5600;50.864;6.102;2023-07-09T18:13:52;90.60;;;13.95;;
11092;SDS011;5600;50.864;6.102;2023-07-09T18:16:54;110.32;;;14.18;;
11092;SDS011;5600;50.864;6.102;2023-07-09T18:19:55;121.05;;;15.52;;
11092;SDS011;5600;50.864;6.102;2023-07-09T18:22:57;101.60;;;14.55;;
11092;SDS011;5600;50.864;6.102;2023-07-09T18:25:58;94.53;;;16.23;;
11092;SDS011;5600;50.864;6.102;2023-07-09T18:28:59;77.97;;;12.20;;
11092;SDS011;5600;50.864;6.102;2023-07-09T18:32:00;147.15;;;15.65;;
11092;SDS011;5600;50.864;6.102;2023-07-09T18:35:15;74.20;;;11.27;;
11092;SDS011;5600;50.864;6.102;2023-07-09T18:38:22;81.72;;;10.85;;
11092;SDS011;5600;50.864;6.102;2023-07-09T18:41:23;91.85;;;9.20;;
11092;SDS011;5600;50.864;6.102;2023-07-09T18:44:24;106.00;;;10.88;;
11092;SDS011;5600;50.864;6.102;2023-07-09T18:47:25;77.05;;;11.65;;
11092;SDS011;5600;50.864;6.102;2023-07-09T18:50:27;101.35;;;13.48;;
11092;SDS011;5600;50.864;6.102;2023-07-09T18:53:30;142.15;;;12.52;;